This is the latest recevied weather packets stored in our database for station/object WG5EEK. If no packets are shown the sender has not sent any weather packets the latest 10 day(s).
| Time | Temp. | Humidity | Pressure | Rain* | Wind** | Luminosity | Snow |
|---|---|---|---|---|---|---|---|
| 1777514761 | 19.44° C | 65% | 982.6 hPa | - | - | - | - |
| 1777513707 | 19.44° C | 65% | 981.8 hPa | - | - | - | - |
| 1777512962 | 19.44° C | 65% | 981.5 hPa | - | - | - | - |
| 1777512602 | 19.44° C | 65% | 981.2 hPa | - | - | - | - |
| 1777511882 | 20° C | 64% | 981.1 hPa | - | - | - | - |
| 1777510801 | 20° C | 64% | 980.4 hPa | - | - | - | - |
| 1777510125 | 20° C | 64% | 980.3 hPa | - | - | - | - |
| 1777507563 | 20.56° C | 64% | 979.2 hPa | - | - | - | - |
| 1777506482 | 21.11° C | 64% | 978.8 hPa | - | - | - | - |
| 1777505043 | 21.67° C | 63% | 977.6 hPa | - | - | - | - |
| 1777503243 | 21.67° C | 62% | 977.3 hPa | - | - | - | - |
| 1777502881 | 21.67° C | 62% | 976.8 hPa | - | - | - | - |
| 1777502547 | 21.67° C | 62% | 976.7 hPa | - | - | - | - |
| 1777501802 | 21.67° C | 62% | 976.7 hPa | - | - | - | - |
| 1777501467 | 21.67° C | 61% | 976.7 hPa | - | - | - | - |
| 1777500002 | 22.22° C | 61% | 976.8 hPa | - | - | - | - |
| 1777499642 | 22.22° C | 60% | 976.5 hPa | - | - | - | - |
| 1777498921 | 22.22° C | 60% | 976.8 hPa | - | - | - | - |
| 1777497122 | 22.22° C | 61% | 976.7 hPa | - | - | - | - |
| 1777496762 | 22.22° C | 61% | 977 hPa | - | - | - | - |
| 1777496041 | 21.67° C | 61% | 977.2 hPa | - | - | - | - |
| 1777493162 | 22.78° C | 61% | 976.8 hPa | - | - | - | - |
| 1777489922 | 22.22° C | 62% | 977.4 hPa | - | - | - | - |
| 1777487042 | 21.67° C | 65% | 978.6 hPa | - | - | - | - |
| 1777482362 | 21.11° C | 66% | 980.9 hPa | - | - | - | - |
* Rain since midnight (hover to see other rain measurements)
** Current wind speed in m/s (hover to see current wind gust speed)